createdAt,value
2023-03-02T00:01:10.802Z,7.48
2023-03-02T00:06:14.216Z,7.23
2023-03-02T00:11:18.758Z,7.11
2023-03-02T00:16:22.036Z,6.91
2023-03-02T00:21:25.739Z,6.79
2023-03-02T00:26:30.706Z,6.98
2023-03-02T00:31:34.706Z,7.03
2023-03-02T00:36:38.016Z,6.83
2023-03-02T00:41:42.539Z,6.71
2023-03-02T00:46:45.886Z,6.90
2023-03-02T00:51:49.021Z,6.92
2023-03-02T00:56:53.555Z,6.64
2023-03-02T01:01:59.022Z,6.42
2023-03-02T01:07:04.288Z,6.32
2023-03-02T01:12:11.312Z,6.49
2023-03-02T01:17:15.409Z,6.38
2023-03-02T01:22:18.963Z,6.18
2023-03-02T01:27:23.537Z,6.09
2023-03-02T01:32:26.790Z,5.98
2023-03-02T01:37:30.044Z,6.08
2023-03-02T01:42:39.958Z,6.07
2023-03-02T01:47:43.127Z,6.26
2023-03-02T01:52:46.357Z,6.23
2023-03-02T01:57:53.674Z,6.15
2023-03-02T02:03:09.006Z,6.11
2023-03-02T02:08:12.528Z,5.79
2023-03-02T02:13:17.034Z,5.64
2023-03-02T02:18:20.311Z,5.70
2023-03-02T02:23:28.949Z,5.78
2023-03-02T02:28:37.318Z,5.59
2023-03-02T02:33:43.719Z,5.50
2023-03-02T02:38:48.675Z,5.46
2023-03-02T02:43:53.441Z,5.52
2023-03-02T02:48:56.642Z,5.57
2023-03-02T02:54:01.540Z,5.46
2023-03-02T02:59:15.081Z,5.50
2023-03-02T03:04:21.678Z,5.47
2023-03-02T03:09:25.799Z,5.50
2023-03-02T03:14:35.492Z,5.31
2023-03-02T03:19:39.304Z,5.21
2023-03-02T03:24:44.362Z,4.99
2023-03-02T03:29:49.305Z,4.89
2023-03-02T03:34:52.479Z,4.95
2023-03-02T03:39:55.780Z,4.92
2023-03-02T03:45:01.356Z,4.84
2023-03-02T03:50:05.010Z,5.01
2023-03-02T03:55:08.964Z,5.21
2023-03-02T04:00:18.406Z,5.11
2023-03-02T04:05:21.660Z,5.21
2023-03-02T04:10:24.775Z,5.38
2023-03-02T04:15:29.415Z,5.07
2023-03-02T04:20:33.270Z,5.16
2023-03-02T04:25:36.401Z,5.22
2023-03-02T04:30:41.018Z,5.01
2023-03-02T04:35:44.230Z,4.87
2023-03-02T04:40:47.443Z,5.01
2023-03-02T04:45:51.983Z,5.05
2023-03-02T04:50:55.113Z,5.01
2023-03-02T04:55:58.395Z,5.06
2023-03-02T05:01:03.690Z,5.13
2023-03-02T05:06:07.248Z,5.22
2023-03-02T05:11:12.141Z,5.08
2023-03-02T05:16:16.729Z,5.00
2023-03-02T05:21:20.336Z,4.98
2023-03-02T05:26:23.700Z,4.66
2023-03-02T05:31:31.940Z,4.97
2023-03-02T05:36:35.592Z,5.09
2023-03-02T05:41:39.364Z,5.09
2023-03-02T05:46:44.036Z,5.26
2023-03-02T05:51:47.347Z,5.06
2023-03-02T05:56:50.598Z,5.04
2023-03-02T06:01:59.129Z,5.00
2023-03-02T06:07:02.516Z,4.59
2023-03-02T06:12:06.178Z,4.39
2023-03-02T06:17:11.227Z,4.59
2023-03-02T06:22:14.463Z,4.60
2023-03-02T06:27:18.148Z,4.42
2023-03-02T06:32:22.887Z,4.61
2023-03-02T06:37:26.179Z,4.72
2023-03-02T06:42:29.951Z,4.79
2023-03-02T06:47:34.935Z,4.80
2023-03-02T06:52:38.197Z,4.80
2023-03-02T06:57:41.533Z,4.84
2023-03-02T07:02:46.300Z,4.87
2023-03-02T07:07:49.526Z,4.90
2023-03-02T07:12:53.864Z,4.91
2023-03-02T07:17:58.548Z,4.89
2023-03-02T07:23:01.838Z,4.97
2023-03-02T07:28:05.534Z,5.02
2023-03-02T07:33:10.193Z,5.06
2023-03-02T07:38:13.417Z,5.02
2023-03-02T07:43:17.213Z,5.06
2023-03-02T07:48:23.394Z,5.10
2023-03-02T07:53:26.753Z,5.14
2023-03-02T07:58:30.089Z,6.39
2023-03-02T08:03:34.747Z,8.07
2023-03-02T08:08:38.502Z,9.66
2023-03-02T08:13:42.571Z,10.00
2023-03-02T08:18:47.190Z,9.99
2023-03-02T08:23:50.930Z,10.48
2023-03-02T08:28:54.244Z,12.28
2023-03-02T08:34:00.126Z,13.16
2023-03-02T08:39:03.398Z,12.54
2023-03-02T08:44:07.792Z,13.08
2023-03-02T08:49:12.460Z,13.54
2023-03-02T08:54:16.470Z,13.74
2023-03-02T08:59:20.400Z,14.15
2023-03-02T09:04:25.159Z,13.96
2023-03-02T09:09:28.216Z,13.40
2023-03-02T09:14:31.540Z,13.57
2023-03-02T09:19:44.331Z,13.53
2023-03-02T09:24:47.994Z,11.87
2023-03-02T09:29:51.332Z,10.82
2023-03-02T09:34:56.036Z,10.25
2023-03-02T09:39:59.313Z,10.03
2023-03-02T09:45:16.492Z,9.82
2023-03-02T09:50:41.359Z,10.60
2023-03-02T09:55:47.459Z,11.79
2023-03-02T10:00:52.303Z,13.58
2023-03-02T10:05:57.552Z,13.55
2023-03-02T10:11:08.138Z,13.99
2023-03-02T10:16:20.680Z,14.27
2023-03-02T10:21:31.196Z,15.13
2023-03-02T10:26:40.642Z,15.55
2023-03-02T10:31:46.185Z,15.97
2023-03-02T10:36:50.748Z,15.45
2023-03-02T10:41:55.085Z,15.44
2023-03-02T10:46:59.475Z,15.77
2023-03-02T10:52:06.374Z,16.33
2023-03-02T10:57:29.796Z,16.35
2023-03-02T11:02:36.333Z,16.48
2023-03-02T11:07:41.048Z,16.01
2023-03-02T11:12:47.898Z,17.43
2023-03-02T11:17:58.163Z,16.93
2023-03-02T11:23:15.392Z,17.30
2023-03-02T11:28:35.397Z,17.73
2023-03-02T11:33:44.404Z,17.85
2023-03-02T11:38:53.660Z,17.81
2023-03-02T11:44:00.279Z,18.02
2023-03-02T11:49:08.122Z,18.20
2023-03-02T11:54:30.759Z,18.58
2023-03-02T11:59:35.694Z,17.70
2023-03-02T12:04:40.306Z,19.11
2023-03-02T12:09:44.940Z,18.52
2023-03-02T12:14:48.099Z,17.90
2023-03-02T12:19:53.665Z,18.91
2023-03-02T12:25:08.645Z,19.77
2023-03-02T12:30:26.388Z,19.77
2023-03-02T12:35:32.945Z,20.64
2023-03-02T12:40:54.650Z,21.15
2023-03-02T12:46:36.905Z,20.63
2023-03-02T12:51:53.069Z,20.12
2023-03-02T12:57:09.163Z,20.36
2023-03-02T13:02:17.980Z,20.34
2023-03-02T13:07:24.486Z,19.57
2023-03-02T13:12:30.499Z,19.47
2023-03-02T13:17:34.358Z,18.77
2023-03-02T13:22:37.674Z,19.18
2023-03-02T13:27:53.909Z,19.25
2023-03-02T13:33:02.921Z,20.17
2023-03-02T13:38:14.956Z,19.80
2023-03-02T13:43:25.210Z,19.59
2023-03-02T13:48:29.282Z,19.89
2023-03-02T13:53:38.151Z,20.20
2023-03-02T13:58:42.766Z,19.62
2023-03-02T14:03:46.005Z,20.37
2023-03-02T14:08:50.238Z,20.13
2023-03-02T14:13:56.107Z,19.36
2023-03-02T14:18:59.272Z,19.66
2023-03-02T14:24:02.494Z,19.42
2023-03-02T14:29:16.385Z,19.84
2023-03-02T14:34:19.886Z,19.97
2023-03-02T14:39:26.549Z,20.54
2023-03-02T14:44:31.156Z,20.34
2023-03-02T14:49:34.337Z,20.68
2023-03-02T14:54:42.130Z,20.59
2023-03-02T14:59:46.703Z,20.92
2023-03-02T15:04:53.733Z,20.55
2023-03-02T15:09:59.040Z,20.97
2023-03-02T15:15:03.585Z,20.73
2023-03-02T15:20:08.006Z,20.60
2023-03-02T15:25:11.615Z,20.63
2023-03-02T15:30:16.489Z,20.61
2023-03-02T15:35:20.000Z,19.99
2023-03-02T15:40:23.136Z,20.08
2023-03-02T15:45:28.959Z,20.32
2023-03-02T15:50:32.088Z,19.98
2023-03-02T15:55:35.305Z,19.51
2023-03-02T16:00:40.059Z,19.68
2023-03-02T16:05:43.493Z,19.36
2023-03-02T16:10:57.373Z,19.29
2023-03-02T16:16:05.192Z,19.15
2023-03-02T16:21:13.313Z,19.10
2023-03-02T16:26:18.954Z,19.02
2023-03-02T16:31:26.565Z,18.58
2023-03-02T16:36:29.740Z,18.61
2023-03-02T16:41:33.016Z,18.18
2023-03-02T16:46:39.498Z,18.00
2023-03-02T16:51:43.853Z,17.43
2023-03-02T16:56:47.686Z,17.18
2023-03-02T17:01:52.417Z,16.96
2023-03-02T17:07:00.912Z,16.92
2023-03-02T17:12:04.872Z,16.86
2023-03-02T17:17:09.825Z,16.77
2023-03-02T17:22:12.967Z,16.69
2023-03-02T17:27:24.965Z,16.51
2023-03-02T17:32:30.493Z,16.41
2023-03-02T17:37:33.813Z,16.28
2023-03-02T17:42:39.071Z,16.11
2023-03-02T17:47:43.799Z,15.93
2023-03-02T17:52:47.218Z,15.54
2023-03-02T17:57:50.339Z,14.98
2023-03-02T18:02:55.029Z,14.72
2023-03-02T18:07:58.257Z,14.42
2023-03-02T18:13:01.460Z,14.20
2023-03-02T18:18:06.522Z,14.01
2023-03-02T18:23:09.443Z,13.76
2023-03-02T18:28:12.571Z,13.69
2023-03-02T18:33:17.214Z,13.47
2023-03-02T18:38:20.463Z,13.45
2023-03-02T18:43:23.629Z,13.28
2023-03-02T18:48:28.291Z,13.00
2023-03-02T18:53:31.470Z,12.96
2023-03-02T18:58:34.731Z,12.76
2023-03-02T19:03:40.173Z,12.63
2023-03-02T19:08:43.395Z,12.48
2023-03-02T19:13:46.566Z,12.41
2023-03-02T19:18:51.331Z,12.17
2023-03-02T19:23:54.566Z,12.08
2023-03-02T19:28:57.752Z,11.99
2023-03-02T19:34:02.396Z,11.80
2023-03-02T19:39:05.614Z,11.74
2023-03-02T19:44:08.754Z,11.54
2023-03-02T19:49:13.300Z,11.51
2023-03-02T19:54:16.428Z,11.42
2023-03-02T19:59:19.668Z,11.31
2023-03-02T20:04:24.212Z,11.42
2023-03-02T20:09:27.972Z,11.05
2023-03-02T20:14:34.067Z,10.69
2023-03-02T20:19:38.899Z,10.70
2023-03-02T20:24:42.752Z,10.65
2023-03-02T20:29:46.008Z,10.45
2023-03-02T20:34:50.588Z,10.29
2023-03-02T20:39:54.378Z,10.02
2023-03-02T20:44:57.594Z,9.87
2023-03-02T20:50:02.802Z,9.81
2023-03-02T20:55:07.025Z,9.92
2023-03-02T21:00:15.297Z,9.98
2023-03-02T21:05:21.586Z,9.88
2023-03-02T21:10:28.085Z,10.12
2023-03-02T21:15:31.434Z,10.13
2023-03-02T21:20:37.183Z,9.78
2023-03-02T21:25:42.274Z,9.66
2023-03-02T21:30:48.449Z,9.91
2023-03-02T21:35:53.041Z,9.71
2023-03-02T21:40:57.201Z,9.82
2023-03-02T21:46:01.434Z,9.90
2023-03-02T21:51:07.232Z,9.97
2023-03-02T21:56:12.009Z,10.01
2023-03-02T22:01:15.581Z,9.99
2023-03-02T22:06:22.021Z,9.90
2023-03-02T22:11:26.484Z,9.47
2023-03-02T22:16:34.296Z,9.17
2023-03-02T22:21:39.842Z,8.89
2023-03-02T22:26:45.296Z,8.70
2023-03-02T22:32:00.129Z,8.72
2023-03-02T22:37:13.242Z,8.32
2023-03-02T22:42:18.016Z,8.69
2023-03-02T22:47:22.238Z,9.04
2023-03-02T22:52:33.850Z,8.97
2023-03-02T22:57:37.812Z,9.10
2023-03-02T23:02:44.963Z,8.99
2023-03-02T23:07:49.776Z,8.55
2023-03-02T23:12:52.959Z,8.68
2023-03-02T23:17:58.978Z,8.84
2023-03-02T23:23:03.555Z,8.76
2023-03-02T23:28:06.959Z,8.72
2023-03-02T23:33:10.348Z,8.52
2023-03-02T23:38:14.952Z,8.40
2023-03-02T23:43:18.066Z,8.39
2023-03-02T23:48:21.454Z,8.40
2023-03-02T23:53:27.157Z,8.02
2023-03-02T23:58:30.364Z,8.08
